createdAt,value
2022-09-02T00:02:31.352Z,12.59
2022-09-02T00:05:35.227Z,12.56
2022-09-02T00:08:39.835Z,12.50
2022-09-02T00:11:47.411Z,12.49
2022-09-02T00:14:51.172Z,12.49
2022-09-02T00:17:55.213Z,12.46
2022-09-02T00:21:03.071Z,12.45
2022-09-02T00:24:08.211Z,12.43
2022-09-02T00:27:13.382Z,12.43
2022-09-02T00:30:18.031Z,12.42
2022-09-02T00:33:21.796Z,12.41
2022-09-02T00:36:25.646Z,12.41
2022-09-02T00:39:29.280Z,12.39
2022-09-02T00:42:36.783Z,12.37
2022-09-02T00:45:40.489Z,12.35
2022-09-02T00:48:49.587Z,12.31
2022-09-02T00:51:58.770Z,12.30
2022-09-02T00:55:08.433Z,12.26
2022-09-02T00:58:27.224Z,12.25
2022-09-02T01:01:31.056Z,12.22
2022-09-02T01:04:35.410Z,12.20
2022-09-02T01:07:40.507Z,12.18
2022-09-02T01:10:45.045Z,12.16
2022-09-02T01:13:50.219Z,12.13
2022-09-02T01:16:57.694Z,12.11
2022-09-02T01:20:12.203Z,12.08
2022-09-02T01:23:18.279Z,12.05
2022-09-02T01:26:22.362Z,12.03
2022-09-02T01:29:28.032Z,12.01
2022-09-02T01:32:32.292Z,11.97
2022-09-02T01:35:36.356Z,11.93
2022-09-02T01:38:41.350Z,11.92
2022-09-02T01:41:45.711Z,11.90
2022-09-02T01:44:49.426Z,11.86
2022-09-02T01:47:53.432Z,11.82
2022-09-02T01:51:01.553Z,11.76
2022-09-02T01:54:07.191Z,11.73
2022-09-02T01:57:11.227Z,11.66
2022-09-02T02:00:17.619Z,11.57
2022-09-02T02:03:21.919Z,11.54
2022-09-02T02:06:25.684Z,11.52
2022-09-02T02:09:30.770Z,11.50
2022-09-02T02:12:34.400Z,11.50
2022-09-02T02:15:40.487Z,11.50
2022-09-02T02:18:44.371Z,11.50
2022-09-02T02:21:48.002Z,11.50
2022-09-02T02:24:53.025Z,11.52
2022-09-02T02:27:56.636Z,11.47
2022-09-02T02:31:01.106Z,11.44
2022-09-02T02:34:04.885Z,11.49
2022-09-02T02:37:08.497Z,11.48
2022-09-02T02:40:14.582Z,11.45
2022-09-02T02:43:18.335Z,11.43
2022-09-02T02:46:22.008Z,11.37
2022-09-02T02:49:26.991Z,11.33
2022-09-02T02:52:30.711Z,11.24
2022-09-02T02:55:36.719Z,11.24
2022-09-02T02:58:40.359Z,11.22
2022-09-02T03:01:44.092Z,11.18
2022-09-02T03:04:48.327Z,11.13
2022-09-02T03:07:52.175Z,11.13
2022-09-02T03:10:59.204Z,11.06
2022-09-02T03:14:02.925Z,11.02
2022-09-02T03:17:06.883Z,10.99
2022-09-02T03:20:12.179Z,10.97
2022-09-02T03:23:16.950Z,10.92
2022-09-02T03:26:25.583Z,10.88
2022-09-02T03:29:29.442Z,10.85
2022-09-02T03:32:33.120Z,10.85
2022-09-02T03:35:42.223Z,10.82
2022-09-02T03:38:45.892Z,10.78
2022-09-02T03:41:50.970Z,10.78
2022-09-02T03:44:54.617Z,10.73
2022-09-02T03:47:59.293Z,10.67
2022-09-02T03:51:04.355Z,10.62
2022-09-02T03:54:08.263Z,10.60
2022-09-02T03:57:13.435Z,10.56
2022-09-02T04:00:20.095Z,10.52
2022-09-02T04:03:24.163Z,10.49
2022-09-02T04:06:32.416Z,10.42
2022-09-02T04:09:36.658Z,10.43
2022-09-02T04:12:42.118Z,10.39
2022-09-02T04:15:49.182Z,10.36
2022-09-02T04:18:52.919Z,10.35
2022-09-02T04:21:56.524Z,10.30
2022-09-02T04:25:00.587Z,10.28
2022-09-02T04:28:05.756Z,10.24
2022-09-02T04:31:13.038Z,10.26
2022-09-02T04:34:17.017Z,10.23
2022-09-02T04:37:21.123Z,10.24
2022-09-02T04:40:26.158Z,10.23
2022-09-02T04:43:31.255Z,10.21
2022-09-02T04:46:35.281Z,10.20
2022-09-02T04:49:38.930Z,10.17
2022-09-02T04:52:43.614Z,10.17
2022-09-02T04:55:47.972Z,10.15
2022-09-02T04:58:54.525Z,10.15
2022-09-02T05:01:58.358Z,10.11
2022-09-02T05:05:02.120Z,10.11
2022-09-02T05:08:05.824Z,10.12
2022-09-02T05:11:11.968Z,10.15
2022-09-02T05:14:17.407Z,10.15
2022-09-02T05:17:21.088Z,10.16
2022-09-02T05:20:26.131Z,10.18
2022-09-02T05:23:29.732Z,10.23
2022-09-02T05:26:36.105Z,10.26
2022-09-02T05:29:43.996Z,10.27
2022-09-02T05:32:49.994Z,10.30
2022-09-02T05:35:54.804Z,10.36
2022-09-02T05:38:58.362Z,10.43
2022-09-02T05:42:02.090Z,10.54
2022-09-02T05:45:09.087Z,10.65
2022-09-02T05:48:26.617Z,10.73
2022-09-02T05:51:31.273Z,10.86
2022-09-02T05:54:38.238Z,11.01
2022-09-02T05:57:43.358Z,11.23
2022-09-02T06:00:48.394Z,11.36
2022-09-02T06:03:53.002Z,11.70
2022-09-02T06:06:56.838Z,11.88
2022-09-02T06:10:00.591Z,12.06
2022-09-02T06:13:04.656Z,12.25
2022-09-02T06:16:14.052Z,12.46
2022-09-02T06:19:20.263Z,12.63
2022-09-02T06:22:25.378Z,12.71
2022-09-02T06:25:28.985Z,12.95
2022-09-02T06:28:33.614Z,13.10
2022-09-02T06:31:41.597Z,13.32
2022-09-02T06:34:45.311Z,13.42
2022-09-02T06:37:49.084Z,13.63
2022-09-02T06:40:55.414Z,13.66
2022-09-02T06:44:01.806Z,13.72
2022-09-02T06:47:07.226Z,13.86
2022-09-02T06:50:11.537Z,13.99
2022-09-02T06:53:17.952Z,14.13
2022-09-02T06:56:22.143Z,14.31
2022-09-02T06:59:26.975Z,14.29
2022-09-02T07:02:31.916Z,14.58
2022-09-02T07:05:34.554Z,14.75
2022-09-02T07:08:39.208Z,14.98
2022-09-02T07:11:43.310Z,15.13
2022-09-02T07:14:47.352Z,15.38
2022-09-02T07:17:52.453Z,15.49
2022-09-02T07:20:57.959Z,15.57
2022-09-02T07:24:03.114Z,15.69
2022-09-02T07:27:08.014Z,15.80
2022-09-02T07:30:13.114Z,15.97
2022-09-02T07:33:18.524Z,16.09
2022-09-02T07:36:22.929Z,16.22
2022-09-02T07:39:26.649Z,16.22
2022-09-02T07:42:30.521Z,16.31
2022-09-02T07:45:36.014Z,16.53
2022-09-02T07:48:42.389Z,16.75
2022-09-02T07:51:50.160Z,16.94
2022-09-02T07:54:53.881Z,17.19
2022-09-02T07:57:57.607Z,17.09
2022-09-02T08:01:01.297Z,17.15
2022-09-02T08:04:07.101Z,17.34
2022-09-02T08:07:11.273Z,17.58
2022-09-02T08:10:17.241Z,17.59
2022-09-02T08:13:21.973Z,17.77
2022-09-02T08:16:30.913Z,17.96
2022-09-02T08:19:36.002Z,17.95
2022-09-02T08:22:40.606Z,18.05
2022-09-02T08:25:45.531Z,18.41
2022-09-02T08:28:49.200Z,18.47
2022-09-02T08:31:54.168Z,18.64
2022-09-02T08:35:02.778Z,18.78
2022-09-02T08:38:06.488Z,18.72
2022-09-02T08:41:23.324Z,18.88
2022-09-02T08:44:28.633Z,19.00
2022-09-02T08:47:34.509Z,18.89
2022-09-02T08:50:46.168Z,18.90
2022-09-02T08:53:59.055Z,19.00
2022-09-02T08:57:02.713Z,19.06
2022-09-02T09:00:07.912Z,19.27
2022-09-02T09:03:27.510Z,19.66
2022-09-02T09:06:47.189Z,19.74
2022-09-02T09:10:10.368Z,19.87
2022-09-02T09:14:01.135Z,20.11
2022-09-02T09:17:16.313Z,20.05
2022-09-02T09:20:22.913Z,20.40
2022-09-02T09:23:34.667Z,20.21
2022-09-02T09:26:42.650Z,20.10
2022-09-02T09:29:46.833Z,20.31
2022-09-02T09:32:56.927Z,20.23
2022-09-02T09:36:00.890Z,20.34
2022-09-02T09:39:21.028Z,20.39
2022-09-02T09:42:35.424Z,20.28
2022-09-02T09:45:41.803Z,20.28
2022-09-02T09:48:51.627Z,20.34
2022-09-02T09:51:57.110Z,20.08
2022-09-02T09:55:19.215Z,19.74
2022-09-02T09:58:35.514Z,19.99
2022-09-02T10:01:39.568Z,20.19
2022-09-02T10:04:43.993Z,20.26
2022-09-02T10:07:57.823Z,20.26
2022-09-02T10:11:08.487Z,20.23
2022-09-02T10:14:13.107Z,20.23
2022-09-02T10:17:33.582Z,20.33
2022-09-02T10:21:15.552Z,20.30
2022-09-02T10:24:45.854Z,20.44
2022-09-02T10:28:04.891Z,20.53
2022-09-02T10:31:18.631Z,20.39
2022-09-02T10:34:36.599Z,20.51
2022-09-02T10:38:01.921Z,21.00
2022-09-02T10:41:23.492Z,21.10
2022-09-02T10:44:36.820Z,21.57
2022-09-02T10:47:41.718Z,21.51
2022-09-02T10:50:53.492Z,21.67
2022-09-02T10:54:18.850Z,21.92
2022-09-02T10:57:32.987Z,21.57
2022-09-02T11:00:42.768Z,21.58
2022-09-02T11:04:04.198Z,21.41
2022-09-02T11:07:14.206Z,21.32
2022-09-02T11:10:26.906Z,21.12
2022-09-02T11:13:40.279Z,21.38
2022-09-02T11:16:53.710Z,21.45
2022-09-02T11:20:09.446Z,21.31
2022-09-02T11:23:25.651Z,21.05
2022-09-02T11:26:38.449Z,21.20
2022-09-02T11:29:58.548Z,21.22
2022-09-02T11:33:17.269Z,20.98
2022-09-02T11:36:21.722Z,21.29
2022-09-02T11:39:52.553Z,21.23
2022-09-02T11:43:22.059Z,21.25
2022-09-02T11:47:02.537Z,21.16
2022-09-02T11:50:41.076Z,21.19
2022-09-02T11:53:47.607Z,21.29
2022-09-02T11:57:00.324Z,21.80
2022-09-02T12:00:30.516Z,21.80
2022-09-02T12:03:52.197Z,21.73
2022-09-02T12:07:32.721Z,21.56
2022-09-02T12:11:06.162Z,21.22
2022-09-02T12:14:13.709Z,21.37
2022-09-02T12:17:47.164Z,21.34
2022-09-02T12:21:16.659Z,21.23
2022-09-02T12:24:26.497Z,21.54
2022-09-02T12:27:36.775Z,21.55
2022-09-02T12:31:16.695Z,22.15
2022-09-02T12:35:10.170Z,22.19
2022-09-02T12:38:36.797Z,21.83
2022-09-02T12:41:46.235Z,21.84
2022-09-02T12:45:04.618Z,21.88
2022-09-02T12:48:18.179Z,22.17
2022-09-02T12:51:57.278Z,22.68
2022-09-02T12:55:09.355Z,22.74
2022-09-02T12:58:22.100Z,22.79
2022-09-02T13:01:41.106Z,22.97
2022-09-02T13:05:00.323Z,22.84
2022-09-02T13:08:54.650Z,23.08
2022-09-02T13:12:51.917Z,22.94
2022-09-02T13:16:18.962Z,22.95
2022-09-02T13:20:00.148Z,23.02
2022-09-02T13:23:43.219Z,23.14
2022-09-02T13:27:53.340Z,22.89
2022-09-02T13:31:14.872Z,22.78
2022-09-02T13:34:18.764Z,22.88
2022-09-02T13:37:36.259Z,23.07
2022-09-02T13:40:43.796Z,23.11
2022-09-02T13:43:47.751Z,22.97
2022-09-02T13:46:58.506Z,23.32
2022-09-02T13:50:02.195Z,23.22
2022-09-02T13:53:53.694Z,23.22
2022-09-02T13:56:33.067Z,23.35
2022-09-02T13:59:40.022Z,23.50
2022-09-02T14:03:02.104Z,23.58
2022-09-02T14:06:08.195Z,23.37
2022-09-02T14:09:23.384Z,23.41
2022-09-02T14:12:33.915Z,23.38
2022-09-02T14:15:38.456Z,23.38
2022-09-02T14:19:14.718Z,23.25
2022-09-02T14:22:28.032Z,23.62
2022-09-02T14:25:38.585Z,23.72
2022-09-02T14:28:42.215Z,23.49
2022-09-02T14:31:47.154Z,23.40
2022-09-02T14:35:13.686Z,23.43
2022-09-02T14:38:25.611Z,23.43
2022-09-02T14:41:36.125Z,23.40
2022-09-02T14:44:40.776Z,23.39
2022-09-02T14:47:44.424Z,23.56
2022-09-02T14:50:50.702Z,23.49
2022-09-02T14:53:54.298Z,23.28
2022-09-02T14:56:57.909Z,23.45
2022-09-02T15:00:06.807Z,23.47
2022-09-02T15:03:16.014Z,23.50
2022-09-02T15:06:20.987Z,23.52
2022-09-02T15:09:24.710Z,23.71
2022-09-02T15:12:31.702Z,23.75
2022-09-02T15:15:40.501Z,23.44
2022-09-02T15:18:44.174Z,23.30
2022-09-02T15:21:49.219Z,23.19
2022-09-02T15:24:53.436Z,23.17
2022-09-02T15:27:57.497Z,22.91
2022-09-02T15:31:02.557Z,22.49
2022-09-02T15:34:06.447Z,22.60
2022-09-02T15:37:13.200Z,22.17
2022-09-02T15:40:17.162Z,21.96
2022-09-02T15:43:21.428Z,21.71
2022-09-02T15:46:28.730Z,21.80
2022-09-02T15:49:32.427Z,21.70
2022-09-02T15:52:38.616Z,21.92
2022-09-02T15:55:42.262Z,22.10
2022-09-02T15:58:46.090Z,22.35
2022-09-02T16:01:55.390Z,22.61
2022-09-02T16:04:59.118Z,22.77
2022-09-02T16:08:04.526Z,22.73
2022-09-02T16:11:10.356Z,22.63
2022-09-02T16:14:15.097Z,21.99
2022-09-02T16:17:24.746Z,21.95
2022-09-02T16:20:28.348Z,21.87
2022-09-02T16:23:33.979Z,21.93
2022-09-02T16:26:39.646Z,21.85
2022-09-02T16:29:43.447Z,21.54
2022-09-02T16:32:47.762Z,21.39
2022-09-02T16:35:51.494Z,21.46
2022-09-02T16:38:56.543Z,21.40
2022-09-02T16:42:04.277Z,21.39
2022-09-02T16:45:09.617Z,21.41
2022-09-02T16:48:13.358Z,21.37
2022-09-02T16:51:20.211Z,21.30
2022-09-02T16:54:30.844Z,21.29
2022-09-02T16:57:36.159Z,21.16
2022-09-02T17:00:40.631Z,21.08
2022-09-02T17:03:46.606Z,20.99
2022-09-02T17:06:50.436Z,20.93
2022-09-02T17:09:55.497Z,20.96
2022-09-02T17:13:00.639Z,20.85
2022-09-02T17:16:04.683Z,20.81
2022-09-02T17:19:10.500Z,20.75
2022-09-02T17:22:14.160Z,20.64
2022-09-02T17:25:19.550Z,20.56
2022-09-02T17:28:27.173Z,20.46
2022-09-02T17:31:34.428Z,20.36
2022-09-02T17:34:38.796Z,20.24
2022-09-02T17:37:42.401Z,20.13
2022-09-02T17:41:05.117Z,20.02
2022-09-02T17:44:08.697Z,19.87
2022-09-02T17:47:16.404Z,19.77
2022-09-02T17:50:19.979Z,19.71
2022-09-02T17:53:26.514Z,19.58
2022-09-02T17:57:03.964Z,19.52
2022-09-02T18:00:11.997Z,19.47
2022-09-02T18:03:44.649Z,19.36
2022-09-02T18:06:53.995Z,19.28
2022-09-02T18:09:58.287Z,19.24
2022-09-02T18:13:08.123Z,19.09
2022-09-02T18:16:37.487Z,19.02
2022-09-02T18:20:09.412Z,18.96
2022-09-02T18:23:36.496Z,18.89
2022-09-02T18:26:57.369Z,18.84
2022-09-02T18:30:09.017Z,18.76
2022-09-02T18:33:34.306Z,18.67
2022-09-02T18:36:48.687Z,18.58
2022-09-02T18:40:13.178Z,18.58
2022-09-02T18:43:33.986Z,18.51
2022-09-02T18:46:50.219Z,18.49
2022-09-02T18:49:58.696Z,18.50
2022-09-02T18:53:02.731Z,18.46
2022-09-02T18:56:10.791Z,18.41
2022-09-02T18:59:20.852Z,18.32
2022-09-02T19:02:44.685Z,18.27
2022-09-02T19:05:48.342Z,18.21
2022-09-02T19:08:59.809Z,18.13
2022-09-02T19:12:04.520Z,18.10
2022-09-02T19:15:28.919Z,18.03
2022-09-02T19:18:34.167Z,17.93
2022-09-02T19:21:42.033Z,17.91
2022-09-02T19:24:57.147Z,17.91
2022-09-02T19:28:06.060Z,17.89
2022-09-02T19:31:18.251Z,17.88
2022-09-02T19:34:31.983Z,17.86
2022-09-02T19:37:44.237Z,17.85
2022-09-02T19:40:49.703Z,17.83
2022-09-02T19:43:54.253Z,17.83
2022-09-02T19:50:24.040Z,17.84
2022-09-02T19:53:30.381Z,17.89
2022-09-02T19:56:34.212Z,17.95
2022-09-02T19:59:37.855Z,17.98
2022-09-02T20:02:41.961Z,17.96
2022-09-02T20:05:48.334Z,17.95
2022-09-02T20:08:52.942Z,17.89
2022-09-02T20:11:57.222Z,17.86
2022-09-02T20:15:01.246Z,17.86
2022-09-02T20:18:12.422Z,17.82
2022-09-02T20:21:23.985Z,17.75
2022-09-02T20:24:31.566Z,17.68
2022-09-02T20:28:02.211Z,17.67
2022-09-02T20:31:25.967Z,17.57
2022-09-02T20:34:50.839Z,17.58
2022-09-02T20:38:11.744Z,17.57
2022-09-02T20:41:33.973Z,17.52
2022-09-02T20:44:57.919Z,17.46
2022-09-02T20:48:17.362Z,17.42
2022-09-02T20:51:30.775Z,17.40
2022-09-02T20:54:46.007Z,17.35
2022-09-02T20:58:26.777Z,17.35
2022-09-02T21:01:34.582Z,17.27
2022-09-02T21:04:45.120Z,17.22
2022-09-02T21:07:55.949Z,17.18
2022-09-02T21:11:06.455Z,17.14
2022-09-02T21:14:17.503Z,17.08
2022-09-02T21:17:32.402Z,17.02
2022-09-02T21:20:47.680Z,16.91
2022-09-02T21:23:57.819Z,16.81
2022-09-02T21:27:12.531Z,16.75
2022-09-02T21:30:22.594Z,16.72
2022-09-02T21:33:30.922Z,16.66
2022-09-02T21:36:39.637Z,16.59
2022-09-02T21:39:52.347Z,16.47
2022-09-02T21:43:24.939Z,16.42
2022-09-02T21:46:41.659Z,16.33
2022-09-02T21:50:06.717Z,16.27
2022-09-02T21:53:23.434Z,16.23
2022-09-02T21:56:49.670Z,16.12
2022-09-02T22:00:05.403Z,16.07
2022-09-02T22:03:18.137Z,16.01
2022-09-02T22:06:32.573Z,15.94
2022-09-02T22:09:36.616Z,15.90
2022-09-02T22:12:48.836Z,15.89
2022-09-02T22:16:13.012Z,15.82
2022-09-02T22:19:31.074Z,15.81
2022-09-02T22:22:44.850Z,15.79
2022-09-02T22:25:50.004Z,15.72
2022-09-02T22:29:03.672Z,15.67
2022-09-02T22:32:13.588Z,15.68
2022-09-02T22:35:27.889Z,15.61
2022-09-02T22:38:42.079Z,15.55
2022-09-02T22:42:01.027Z,15.55
2022-09-02T22:45:29.396Z,15.55
2022-09-02T22:48:57.783Z,15.51
2022-09-02T22:52:29.519Z,15.42
2022-09-02T22:55:50.515Z,15.37
2022-09-02T22:59:38.783Z,15.32
2022-09-02T23:02:51.002Z,15.27
2022-09-02T23:06:08.089Z,15.27
2022-09-02T23:09:14.104Z,15.20
2022-09-02T23:12:28.851Z,15.12
2022-09-02T23:15:48.006Z,15.04
2022-09-02T23:19:12.001Z,15.00
2022-09-02T23:22:34.261Z,14.94
2022-09-02T23:26:03.937Z,14.90
2022-09-02T23:29:18.757Z,14.81
2022-09-02T23:33:07.185Z,14.72
2022-09-02T23:36:21.990Z,14.68
2022-09-02T23:39:49.210Z,14.61
2022-09-02T23:42:52.960Z,14.62
2022-09-02T23:46:02.458Z,14.53
2022-09-02T23:49:21.271Z,14.46
2022-09-02T23:52:34.344Z,14.39
2022-09-02T23:55:52.245Z,14.34
2022-09-02T23:59:20.887Z,14.29
